This is the latest recevied weather packets stored in our database for station/object HB9FRQ-10. If no packets are shown the sender has not sent any weather packets the latest 1 day(s).
| Time | Temp. | Humidity | Pressure | Rain* | Wind** | Luminosity | Snow |
|---|---|---|---|---|---|---|---|
| 1788551684 | 23.89° C | 57% | 1019 hPa | - | - | - | - |
| 1788550783 | 23.89° C | 57% | 1019.1 hPa | - | - | - | - |
| 1788549883 | 25.56° C | 49% | 1019 hPa | - | - | - | - |
| 1788548983 | 26.11° C | 48% | 1018.8 hPa | - | - | - | - |
| 1788548083 | 26.67° C | 46% | 1018.8 hPa | - | - | - | - |
| 1788547183 | 27.22° C | 44% | 1018.6 hPa | - | - | - | - |
| 1788546283 | 27.78° C | 43% | 1018.4 hPa | - | - | - | - |
| 1788545382 | 28.33° C | 42% | 1018.2 hPa | - | - | - | - |
| 1788544482 | 28.89° C | 41% | 1018 hPa | - | - | - | - |
| 1788543582 | 29.44° C | 40% | 1017.9 hPa | - | - | - | - |
| 1788542681 | 30° C | 38% | 1017.7 hPa | - | - | - | - |
| 1788541781 | 30° C | 37% | 1017.8 hPa | - | - | - | - |
| 1788540881 | 30.56° C | 36% | 1017.6 hPa | - | - | - | - |
| 1788539980 | 30.56° C | 35% | 1017.6 hPa | - | - | - | - |
| 1788539080 | 31.11° C | 35% | 1017.6 hPa | - | - | - | - |
| 1788538180 | 31.67° C | 34% | 1017.5 hPa | - | - | - | - |
| 1788537279 | 32.22° C | 33% | 1017.5 hPa | - | - | - | - |
| 1788536379 | 32.22° C | 32% | 1017.6 hPa | - | - | - | - |
| 1788535479 | 32.78° C | 32% | 1017.7 hPa | - | - | - | - |
| 1788534578 | 33.33° C | 33% | 1017.6 hPa | - | - | - | - |
| 1788533678 | 33.33° C | 31% | 1017.8 hPa | - | - | - | - |
* Rain since midnight (hover to see other rain measurements)
** Current wind speed in m/s (hover to see current wind gust speed)